createdAt,value
2019-01-15T00:01:35.161Z,99.90
2019-01-15T00:04:04.357Z,99.90
2019-01-15T00:06:33.529Z,99.90
2019-01-15T00:09:03.305Z,99.90
2019-01-15T00:11:32.473Z,99.90
2019-01-15T00:14:01.943Z,99.90
2019-01-15T00:16:31.123Z,99.90
2019-01-15T00:19:00.321Z,99.90
2019-01-15T00:21:29.977Z,99.90
2019-01-15T00:23:59.220Z,99.90
2019-01-15T00:26:28.453Z,99.90
2019-01-15T00:28:57.725Z,99.90
2019-01-15T00:31:27.059Z,99.90
2019-01-15T00:33:56.276Z,99.90
2019-01-15T00:36:25.786Z,99.90
2019-01-15T00:38:55.073Z,99.90
2019-01-15T00:41:24.253Z,99.90
2019-01-15T00:43:53.540Z,99.90
2019-01-15T00:46:22.719Z,99.90
2019-01-15T00:48:52.005Z,99.90
2019-01-15T00:51:21.180Z,99.90
2019-01-15T00:53:50.400Z,99.90
2019-01-15T00:56:19.647Z,99.90
2019-01-15T00:58:49.226Z,99.90
2019-01-15T01:01:18.468Z,99.90
2019-01-15T01:03:47.651Z,99.90
2019-01-15T01:06:16.922Z,99.90
2019-01-15T01:08:46.619Z,99.90
2019-01-15T01:11:15.870Z,99.90
2019-01-15T01:13:45.143Z,99.90
2019-01-15T01:16:14.330Z,99.90
2019-01-15T01:18:43.617Z,99.90
2019-01-15T01:21:13.149Z,99.90
2019-01-15T01:23:42.525Z,99.90
2019-01-15T01:26:11.706Z,99.90
2019-01-15T01:28:41.016Z,99.90
2019-01-15T01:31:10.233Z,99.90
2019-01-15T01:33:39.448Z,99.90
2019-01-15T01:36:08.638Z,99.90
2019-01-15T01:38:37.900Z,99.90
2019-01-15T01:41:07.064Z,99.90
2019-01-15T01:43:36.742Z,99.90
2019-01-15T01:46:05.952Z,99.90
2019-01-15T01:48:35.445Z,99.90
2019-01-15T01:51:04.680Z,99.90
2019-01-15T01:53:33.904Z,99.90
2019-01-15T01:56:03.078Z,99.90
2019-01-15T01:58:32.238Z,99.90
2019-01-15T02:01:01.729Z,99.90
2019-01-15T02:03:30.968Z,99.90
2019-01-15T02:06:00.264Z,99.90
2019-01-15T02:08:29.504Z,99.90
2019-01-15T02:10:58.848Z,99.90
2019-01-15T02:13:28.004Z,99.90
2019-01-15T02:15:57.206Z,99.90
2019-01-15T02:18:26.364Z,99.90
2019-01-15T02:20:55.780Z,99.90
2019-01-15T02:23:26.186Z,99.90
2019-01-15T02:25:56.252Z,99.90
2019-01-15T02:28:25.502Z,99.90
2019-01-15T02:30:54.760Z,99.70
2019-01-15T02:33:23.920Z,99.80
2019-01-15T02:35:53.122Z,99.60
2019-01-15T02:38:22.297Z,99.70
2019-01-15T02:40:51.568Z,99.50
2019-01-15T02:43:20.810Z,99.50
2019-01-15T02:45:49.995Z,99.50
2019-01-15T02:48:19.167Z,99.90
2019-01-15T02:50:48.356Z,99.90
2019-01-15T02:53:17.917Z,99.90
2019-01-15T02:55:47.390Z,99.90
2019-01-15T02:58:16.552Z,99.90
2019-01-15T03:00:45.720Z,99.90
2019-01-15T03:03:14.956Z,99.90
2019-01-15T03:05:44.218Z,99.90
2019-01-15T03:08:13.383Z,99.90
2019-01-15T03:10:43.562Z,99.90
2019-01-15T03:13:13.509Z,99.90
2019-01-15T03:15:42.832Z,99.90
2019-01-15T03:18:12.775Z,99.90
2019-01-15T03:20:41.936Z,99.90
2019-01-15T03:23:11.727Z,99.90
2019-01-15T03:25:40.982Z,99.90
2019-01-15T03:28:10.248Z,99.90
2019-01-15T03:30:39.414Z,99.90
2019-01-15T03:33:10.952Z,99.90
2019-01-15T03:35:40.113Z,99.90
2019-01-15T03:38:09.480Z,99.90
2019-01-15T03:40:38.641Z,99.90
2019-01-15T03:43:07.965Z,99.90
2019-01-15T03:45:37.209Z,99.90
2019-01-15T03:48:06.481Z,99.90
2019-01-15T03:50:35.633Z,99.90
2019-01-15T03:53:05.141Z,99.90
2019-01-15T03:55:34.331Z,99.90
2019-01-15T03:58:03.498Z,99.90
2019-01-15T04:00:32.761Z,99.90
2019-01-15T04:03:01.999Z,99.90
2019-01-15T04:05:31.368Z,99.90
2019-01-15T04:08:01.248Z,99.90
2019-01-15T04:10:30.426Z,99.90
2019-01-15T04:12:59.784Z,99.90
2019-01-15T04:15:28.979Z,99.90
2019-01-15T04:17:58.335Z,99.90
2019-01-15T04:20:27.529Z,99.90
2019-01-15T04:22:56.779Z,99.90
2019-01-15T04:25:26.507Z,99.90
2019-01-15T04:27:55.755Z,99.90
2019-01-15T04:30:25.498Z,99.90
2019-01-15T04:32:54.673Z,99.90
2019-01-15T04:35:23.851Z,99.90
2019-01-15T04:37:53.015Z,99.90
2019-01-15T04:40:23.155Z,99.90
2019-01-15T04:42:54.089Z,99.90
2019-01-15T04:45:25.130Z,99.90
2019-01-15T04:47:54.535Z,99.90
2019-01-15T04:50:23.703Z,99.90
2019-01-15T04:53:00.266Z,99.90
2019-01-15T04:55:29.620Z,99.90
2019-01-15T04:57:58.818Z,99.90
2019-01-15T05:00:28.268Z,99.90
2019-01-15T05:03:00.869Z,99.90
2019-01-15T05:05:30.095Z,99.90
2019-01-15T05:07:59.368Z,99.90
2019-01-15T05:10:28.544Z,99.90
2019-01-15T05:12:57.750Z,99.80
2019-01-15T05:15:26.982Z,99.40
2019-01-15T05:17:56.161Z,98.90
2019-01-15T05:20:25.313Z,99.10
2019-01-15T05:22:54.659Z,99.20
2019-01-15T05:25:23.945Z,99.00
2019-01-15T05:27:53.140Z,99.00
2019-01-15T05:30:40.606Z,99.10
2019-01-15T05:33:10.277Z,98.90
2019-01-15T05:35:39.516Z,98.80
2019-01-15T05:38:08.712Z,99.20
2019-01-15T05:40:38.076Z,99.20
2019-01-15T05:43:07.250Z,99.40
2019-01-15T05:45:38.116Z,99.60
2019-01-15T05:48:20.802Z,99.70
2019-01-15T05:51:15.163Z,99.90
2019-01-15T05:53:44.391Z,99.90
2019-01-15T05:56:13.682Z,99.90
2019-01-15T05:58:42.888Z,99.90
2019-01-15T06:01:12.087Z,99.90
2019-01-15T06:03:41.252Z,99.90
2019-01-15T06:06:10.451Z,99.90
2019-01-15T06:08:39.760Z,99.90
2019-01-15T06:11:09.033Z,99.90
2019-01-15T06:13:42.581Z,99.90
2019-01-15T06:16:09.201Z,99.90
2019-01-15T06:18:38.860Z,99.90
2019-01-15T06:21:08.129Z,99.90
2019-01-15T06:23:37.314Z,99.90
2019-01-15T06:26:06.609Z,99.90
2019-01-15T06:28:36.060Z,99.90
2019-01-15T06:31:05.823Z,99.90
2019-01-15T06:33:35.010Z,99.90
2019-01-15T06:36:04.498Z,99.90
2019-01-15T06:38:33.744Z,99.90
2019-01-15T06:41:02.938Z,99.60
2019-01-15T06:43:32.133Z,99.80
2019-01-15T06:46:01.396Z,99.50
2019-01-15T06:48:30.613Z,99.50
2019-01-15T06:50:59.812Z,99.70
2019-01-15T06:53:28.987Z,99.40
2019-01-15T06:55:58.169Z,99.40
2019-01-15T06:58:27.672Z,99.20
2019-01-15T07:00:57.057Z,99.20
2019-01-15T07:03:26.225Z,99.10
2019-01-15T07:05:55.515Z,99.20
2019-01-15T07:08:24.681Z,99.10
2019-01-15T07:10:53.945Z,99.10
2019-01-15T07:13:23.121Z,98.90
2019-01-15T07:15:54.085Z,98.70
2019-01-15T07:18:23.262Z,98.70
2019-01-15T07:20:52.939Z,98.90
2019-01-15T07:23:22.117Z,98.80
2019-01-15T07:25:51.268Z,98.90
2019-01-15T07:28:20.510Z,98.90
2019-01-15T07:30:54.505Z,99.00
2019-01-15T07:33:26.773Z,99.20
2019-01-15T07:35:55.931Z,99.10
2019-01-15T07:38:25.215Z,99.10
2019-01-15T07:40:54.542Z,98.90
2019-01-15T07:43:24.157Z,99.10
2019-01-15T07:45:53.393Z,98.70
2019-01-15T07:48:22.586Z,98.80
2019-01-15T07:50:52.055Z,98.90
2019-01-15T07:53:21.603Z,98.90
2019-01-15T07:55:50.849Z,98.90
2019-01-15T07:58:20.039Z,98.80
2019-01-15T08:00:49.318Z,99.10
2019-01-15T08:03:18.513Z,98.60
2019-01-15T08:05:47.717Z,98.90
2019-01-15T08:08:17.111Z,99.30
2019-01-15T08:10:46.293Z,99.10
2019-01-15T08:13:15.763Z,99.00
2019-01-15T08:15:45.018Z,99.10
2019-01-15T08:18:14.251Z,99.00
2019-01-15T08:20:43.431Z,98.90
2019-01-15T08:23:12.820Z,99.00
2019-01-15T08:25:42.019Z,99.10
2019-01-15T08:28:11.254Z,99.00
2019-01-15T08:30:40.639Z,99.20
2019-01-15T08:33:09.814Z,98.90
2019-01-15T08:35:39.012Z,99.00
2019-01-15T08:38:08.284Z,99.00
2019-01-15T08:40:37.450Z,98.90
2019-01-15T08:43:06.624Z,98.90
2019-01-15T08:45:35.804Z,99.20
2019-01-15T08:48:33.616Z,99.10
2019-01-15T08:51:03.950Z,98.80
2019-01-15T08:53:33.712Z,98.90
2019-01-15T08:56:03.192Z,98.80
2019-01-15T08:58:32.572Z,98.90
2019-01-15T09:01:01.787Z,98.90
2019-01-15T09:03:31.016Z,99.20
2019-01-15T09:06:00.221Z,99.30
2019-01-15T09:08:29.728Z,99.10
2019-01-15T09:11:18.075Z,99.10
2019-01-15T09:13:47.423Z,99.20
2019-01-15T09:16:16.798Z,99.10
2019-01-15T09:18:46.232Z,99.30
2019-01-15T09:21:15.476Z,99.20
2019-01-15T09:23:44.632Z,99.10
2019-01-15T09:26:15.382Z,98.50
2019-01-15T09:28:44.754Z,98.80
2019-01-15T09:31:14.032Z,98.50
2019-01-15T09:33:43.189Z,98.30
2019-01-15T09:36:12.466Z,98.50
2019-01-15T09:38:41.712Z,98.00
2019-01-15T09:41:10.890Z,98.20
2019-01-15T09:43:40.416Z,98.10
2019-01-15T09:46:09.594Z,98.20
2019-01-15T09:48:39.041Z,97.90
2019-01-15T09:51:08.497Z,97.30
2019-01-15T09:53:37.832Z,97.20
2019-01-15T09:56:06.999Z,97.20
2019-01-15T09:58:36.349Z,96.80
2019-01-15T10:01:05.871Z,97.00
2019-01-15T10:03:35.109Z,97.00
2019-01-15T10:06:04.485Z,96.70
2019-01-15T10:08:33.785Z,97.00
2019-01-15T10:11:03.157Z,96.80
2019-01-15T10:13:32.417Z,97.00
2019-01-15T10:16:01.865Z,96.50
2019-01-15T10:18:31.202Z,96.30
2019-01-15T10:21:00.749Z,96.20
2019-01-15T10:23:29.951Z,96.10
2019-01-15T10:25:59.153Z,96.20
2019-01-15T10:28:28.365Z,95.90
2019-01-15T10:31:38.789Z,95.70
2019-01-15T10:34:35.358Z,96.10
2019-01-15T10:37:03.751Z,95.90
2019-01-15T10:39:33.005Z,95.80
2019-01-15T10:42:02.509Z,95.20
2019-01-15T10:44:31.759Z,95.10
2019-01-15T10:47:01.420Z,95.30
2019-01-15T10:49:30.585Z,94.90
2019-01-15T10:51:59.884Z,95.10
2019-01-15T10:54:29.153Z,94.70
2019-01-15T10:56:58.383Z,94.80
2019-01-15T10:59:27.669Z,94.50
2019-01-15T11:01:57.199Z,94.70
2019-01-15T11:04:26.400Z,94.20
2019-01-15T11:06:55.585Z,94.70
2019-01-15T11:09:24.955Z,94.00
2019-01-15T11:11:54.120Z,94.00
2019-01-15T11:14:23.886Z,94.20
2019-01-15T11:16:53.238Z,94.40
2019-01-15T11:19:22.412Z,93.90
2019-01-15T11:21:52.078Z,94.00
2019-01-15T11:24:21.751Z,93.50
2019-01-15T11:26:50.988Z,93.80
2019-01-15T11:29:20.205Z,94.60
2019-01-15T11:31:49.455Z,93.40
2019-01-15T11:34:18.751Z,93.40
2019-01-15T11:36:47.924Z,93.30
2019-01-15T11:39:17.133Z,93.40
2019-01-15T11:41:46.313Z,92.20
2019-01-15T11:44:15.714Z,92.70
2019-01-15T11:46:45.076Z,92.50
2019-01-15T11:49:14.276Z,92.50
2019-01-15T11:51:43.439Z,92.30
2019-01-15T11:54:12.648Z,91.70
2019-01-15T11:56:41.829Z,91.90
2019-01-15T11:59:11.187Z,92.00
2019-01-15T12:01:46.658Z,91.40
2019-01-15T12:04:26.778Z,92.10
2019-01-15T12:07:23.881Z,91.90
2019-01-15T12:10:05.424Z,90.80
2019-01-15T12:12:56.832Z,90.90
2019-01-15T12:15:51.060Z,90.60
2019-01-15T12:18:57.000Z,90.90
2019-01-15T12:21:45.615Z,90.30
2019-01-15T12:24:34.512Z,89.80
2019-01-15T12:27:38.521Z,90.30
2019-01-15T12:30:35.428Z,90.10
2019-01-15T12:33:22.169Z,90.40
2019-01-15T12:36:13.513Z,89.80
2019-01-15T12:39:00.614Z,89.60
2019-01-15T12:41:47.730Z,90.60
2019-01-15T12:44:35.324Z,90.10
2019-01-15T12:47:33.530Z,89.60
2019-01-15T12:50:19.679Z,88.90
2019-01-15T12:53:10.968Z,88.80
2019-01-15T12:56:04.084Z,89.20
2019-01-15T12:58:51.225Z,89.40
2019-01-15T13:01:41.188Z,89.90
2019-01-15T13:04:35.568Z,88.70
2019-01-15T13:07:30.197Z,89.80
2019-01-15T13:10:17.108Z,89.40
2019-01-15T13:13:05.838Z,89.20
2019-01-15T13:16:00.381Z,90.10
2019-01-15T13:18:48.985Z,88.40
2019-01-15T13:21:55.611Z,88.60
2019-01-15T13:24:43.319Z,88.80
2019-01-15T13:27:34.913Z,89.60
2019-01-15T13:30:12.313Z,89.60
2019-01-15T13:32:59.221Z,89.40
2019-01-15T13:35:51.979Z,89.60
2019-01-15T13:38:41.473Z,89.80
2019-01-15T13:41:38.801Z,90.10
2019-01-15T13:44:19.201Z,89.80
2019-01-15T13:47:16.398Z,90.00
2019-01-15T13:50:16.553Z,89.80
2019-01-15T13:53:02.208Z,90.00
2019-01-15T13:55:46.037Z,90.00
2019-01-15T13:58:59.644Z,90.70
2019-01-15T14:01:54.005Z,90.90
2019-01-15T14:04:40.425Z,90.70
2019-01-15T14:07:23.535Z,95.20
2019-01-15T14:10:10.417Z,90.70
2019-01-15T14:13:01.495Z,91.20
2019-01-15T14:15:39.277Z,90.80
2019-01-15T14:18:26.170Z,91.20
2019-01-15T14:21:35.120Z,90.80
2019-01-15T14:24:26.417Z,90.90
2019-01-15T14:27:20.502Z,90.80
2019-01-15T14:30:01.569Z,91.30
2019-01-15T14:32:40.217Z,91.10
2019-01-15T14:35:40.700Z,91.10
2019-01-15T14:38:25.408Z,91.40
2019-01-15T14:41:10.053Z,91.60
2019-01-15T14:43:54.015Z,91.80
2019-01-15T14:46:41.246Z,91.80
2019-01-15T14:49:35.293Z,91.40
2019-01-15T14:52:15.667Z,92.10
2019-01-15T14:55:11.484Z,92.10
2019-01-15T14:57:56.252Z,92.10
2019-01-15T15:00:56.675Z,92.20
2019-01-15T15:03:44.878Z,91.70
2019-01-15T15:06:41.556Z,92.20
2019-01-15T15:09:41.785Z,92.00
2019-01-15T15:12:22.362Z,92.30
2019-01-15T15:15:18.310Z,92.40
2019-01-15T15:17:59.145Z,92.30
2019-01-15T15:20:58.070Z,92.50
2019-01-15T15:23:53.456Z,92.70
2019-01-15T15:26:38.764Z,92.50
2019-01-15T15:29:32.616Z,92.90
2019-01-15T15:32:19.832Z,93.20
2019-01-15T15:35:15.857Z,93.30
2019-01-15T15:38:02.716Z,93.10
2019-01-15T15:41:03.021Z,93.30
2019-01-15T15:43:42.876Z,93.70
2019-01-15T15:46:34.288Z,93.60
2019-01-15T15:49:32.068Z,93.40
2019-01-15T15:52:20.274Z,93.30
2019-01-15T15:55:11.384Z,93.50
2019-01-15T15:58:15.024Z,93.50
2019-01-15T16:01:01.955Z,93.70
2019-01-15T16:03:56.120Z,93.80
2019-01-15T16:06:54.384Z,94.10
2019-01-15T16:10:19.926Z,94.20
2019-01-15T16:13:08.060Z,94.30
2019-01-15T16:15:56.448Z,94.50
2019-01-15T16:18:56.687Z,94.40
2019-01-15T16:21:47.698Z,94.40
2019-01-15T16:24:48.257Z,94.40
2019-01-15T16:27:35.237Z,94.30
2019-01-15T16:30:25.897Z,94.50
2019-01-15T16:33:23.193Z,94.40
2019-01-15T16:35:59.923Z,94.70
2019-01-15T16:38:54.320Z,94.80
2019-01-15T16:41:45.453Z,94.60
2019-01-15T16:44:33.788Z,95.00
2019-01-15T16:47:24.957Z,95.00
2019-01-15T16:50:20.959Z,94.70
2019-01-15T16:53:06.353Z,95.00
2019-01-15T16:56:01.179Z,94.60
2019-01-15T16:58:55.485Z,94.70
2019-01-15T17:01:44.208Z,94.80
2019-01-15T17:04:27.691Z,94.60
2019-01-15T17:07:35.893Z,94.90
2019-01-15T17:10:19.863Z,94.50
2019-01-15T17:13:16.477Z,94.40
2019-01-15T17:16:07.614Z,94.40
2019-01-15T17:18:54.443Z,94.30
2019-01-15T17:21:40.113Z,94.60
2019-01-15T17:24:34.174Z,94.40
2019-01-15T17:27:23.737Z,94.40
2019-01-15T17:30:10.835Z,94.20
2019-01-15T17:33:11.081Z,94.20
2019-01-15T17:35:58.349Z,94.00
2019-01-15T17:38:58.662Z,94.10
2019-01-15T17:41:45.850Z,94.40
2019-01-15T17:44:37.203Z,94.30
2019-01-15T17:47:26.797Z,94.30
2019-01-15T17:50:31.095Z,94.30
2019-01-15T17:53:19.555Z,94.20
2019-01-15T17:56:20.393Z,94.40
2019-01-15T17:59:12.011Z,94.50
2019-01-15T18:02:12.460Z,93.60
2019-01-15T18:05:19.469Z,93.80
2019-01-15T18:08:02.721Z,94.00
2019-01-15T18:11:01.680Z,94.40
2019-01-15T18:14:04.094Z,94.10
2019-01-15T18:16:51.562Z,94.10
2019-01-15T18:19:38.519Z,94.00
2019-01-15T18:22:26.957Z,93.80
2019-01-15T18:25:14.142Z,94.20
2019-01-15T18:28:07.820Z,94.10
2019-01-15T18:31:06.423Z,94.00
2019-01-15T18:34:03.972Z,93.80
2019-01-15T18:37:04.754Z,94.00
2019-01-15T18:40:01.956Z,93.90
2019-01-15T18:43:05.399Z,93.90
2019-01-15T18:45:41.540Z,93.80
2019-01-15T18:48:28.845Z,93.70
2019-01-15T18:51:20.179Z,93.70
2019-01-15T18:54:15.200Z,93.70
2019-01-15T18:57:03.543Z,93.70
2019-01-15T18:59:52.391Z,93.40
2019-01-15T19:02:37.136Z,93.60
2019-01-15T19:05:28.231Z,93.70
2019-01-15T19:08:16.840Z,93.60
2019-01-15T19:11:03.679Z,93.70
2019-01-15T19:14:01.204Z,94.00
2019-01-15T19:16:53.142Z,93.90
2019-01-15T19:19:44.612Z,93.90
2019-01-15T19:22:24.522Z,94.10
2019-01-15T19:25:13.094Z,94.00
2019-01-15T19:28:04.798Z,94.10
2019-01-15T19:30:54.886Z,94.30
2019-01-15T19:33:42.140Z,94.00
2019-01-15T19:36:33.537Z,94.30
2019-01-15T19:39:20.842Z,94.40
2019-01-15T19:42:08.059Z,93.90
2019-01-15T19:44:56.092Z,93.80
2019-01-15T19:48:12.968Z,93.90
2019-01-15T19:51:00.338Z,94.00
2019-01-15T19:53:54.015Z,94.00
2019-01-15T19:56:46.380Z,93.80
2019-01-15T19:59:24.917Z,93.90
2019-01-15T20:02:19.537Z,93.90
2019-01-15T20:05:17.283Z,94.10
2019-01-15T20:08:03.155Z,93.40
2019-01-15T20:10:54.394Z,93.30
2019-01-15T20:13:35.874Z,93.60
2019-01-15T20:16:27.306Z,93.90
2019-01-15T20:19:21.373Z,93.60
2019-01-15T20:22:16.406Z,93.20
2019-01-15T20:25:03.718Z,93.20
2019-01-15T20:27:55.197Z,93.10
2019-01-15T20:30:43.721Z,93.00
2019-01-15T20:33:32.383Z,93.30
2019-01-15T20:36:16.363Z,93.00
2019-01-15T20:39:04.053Z,93.30
2019-01-15T20:41:51.765Z,93.60
2019-01-15T20:44:47.255Z,93.90
2019-01-15T20:47:33.469Z,93.90
2019-01-15T20:50:33.148Z,94.00
2019-01-15T20:53:34.459Z,94.10
2019-01-15T20:56:24.287Z,93.90
2019-01-15T20:59:13.092Z,94.20
2019-01-15T21:01:52.647Z,94.40
2019-01-15T21:04:41.021Z,94.70
2019-01-15T21:07:24.234Z,94.60
2019-01-15T21:10:19.223Z,94.40
2019-01-15T21:13:16.945Z,94.50
2019-01-15T21:16:37.087Z,94.70
2019-01-15T21:19:33.403Z,94.80
2019-01-15T21:22:24.813Z,94.50
2019-01-15T21:25:10.437Z,94.60
2019-01-15T21:27:52.594Z,94.40
2019-01-15T21:30:41.802Z,94.60
2019-01-15T21:33:30.131Z,94.40
2019-01-15T21:36:19.713Z,94.50
2019-01-15T21:39:20.951Z,94.60
2019-01-15T21:42:27.402Z,94.30
2019-01-15T21:45:16.535Z,94.60
2019-01-15T21:48:11.057Z,94.20
2019-01-15T21:51:14.846Z,94.40
2019-01-15T21:54:06.154Z,94.50
2019-01-15T21:56:51.497Z,94.60
2019-01-15T21:59:38.005Z,94.90
2019-01-15T22:02:41.904Z,94.70
2019-01-15T22:05:39.223Z,94.80
2019-01-15T22:08:26.986Z,94.60
2019-01-15T22:11:17.930Z,94.60
2019-01-15T22:14:21.471Z,94.70
2019-01-15T22:17:07.716Z,94.70
2019-01-15T22:19:58.009Z,94.50
2019-01-15T22:22:46.258Z,94.60
2019-01-15T22:25:33.132Z,94.80
2019-01-15T22:28:21.398Z,94.70
2019-01-15T22:31:15.516Z,94.80
2019-01-15T22:34:06.860Z,94.80
2019-01-15T22:36:46.596Z,95.10
2019-01-15T22:39:33.573Z,94.40
2019-01-15T22:42:23.439Z,94.60
2019-01-15T22:45:11.726Z,94.40
2019-01-15T22:47:56.125Z,94.20
2019-01-15T22:50:47.339Z,94.50
2019-01-15T22:53:44.797Z,94.90
2019-01-15T22:56:27.829Z,94.80
2019-01-15T22:59:26.597Z,94.80
2019-01-15T23:02:15.295Z,95.20
2019-01-15T23:05:21.648Z,95.00
2019-01-15T23:08:08.896Z,94.70
2019-01-15T23:10:52.064Z,94.90
2019-01-15T23:13:39.000Z,94.60
2019-01-15T23:16:18.006Z,94.90
2019-01-15T23:19:18.704Z,94.60
2019-01-15T23:22:07.303Z,95.40
2019-01-15T23:24:54.375Z,94.70
2019-01-15T23:28:00.787Z,94.50
2019-01-15T23:30:37.995Z,94.70
2019-01-15T23:33:37.685Z,94.60
2019-01-15T23:36:19.349Z,94.60
2019-01-15T23:39:10.181Z,94.50
2019-01-15T23:41:57.348Z,94.20
2019-01-15T23:45:03.681Z,94.40
2019-01-15T23:47:44.769Z,94.40
2019-01-15T23:50:39.028Z,94.80
2019-01-15T23:53:27.708Z,94.60
2019-01-15T23:56:22.106Z,94.80
2019-01-15T23:59:07.177Z,94.50
